Time;durP1;ratioP1;P1;durP2;ratioP2;P2;SDS_P1;SDS_P2;PMS_P1;PMS_P2;Temp;Humidity;BMP_temperature;BMP_pressure;BME280_temperature;BME280_humidity;BME280_pressure;Samples;Min_cycle;Max_cycle;Signal;HPM_P1;HPM_P2
2023/08/13 00:00:04;;;;;;;9.87;2.73;;;16.00;99.90;;;;;;5041677;28;20206;-78
2023/08/13 00:02:29;;;;;;;8.93;2.90;;;16.00;99.90;;;;;;5042253;28;20218;-79
2023/08/13 00:04:55;;;;;;;9.40;2.60;;;16.00;99.90;;;;;;5039167;28;20176;-79
2023/08/13 00:07:21;;;;;;;7.90;2.70;;;16.00;99.90;;;;;;5039846;28;20191;-79
2023/08/13 00:09:46;;;;;;;16.37;3.27;;;16.00;99.90;;;;;;5037105;28;20180;-79
2023/08/13 00:12:12;;;;;;;7.83;2.97;;;16.00;99.90;;;;;;5043342;28;20586;-79
2023/08/13 00:14:37;;;;;;;12.43;3.10;;;16.00;99.90;;;;;;5057550;28;20242;-79
2023/08/13 00:17:04;;;;;;;5.23;2.63;;;16.00;99.90;;;;;;5059303;28;20180;-79
2023/08/13 00:19:30;;;;;;;8.17;2.80;;;16.00;99.90;;;;;;5059243;28;20184;-79
2023/08/13 00:21:56;;;;;;;8.63;3.60;;;16.10;99.90;;;;;;5056323;28;20301;-79
2023/08/13 00:24:21;;;;;;;9.43;3.10;;;16.10;99.90;;;;;;5038315;28;20180;-79
2023/08/13 00:26:47;;;;;;;10.00;3.00;;;16.10;99.90;;;;;;5040244;28;20192;-79
2023/08/13 00:29:12;;;;;;;6.50;2.60;;;16.10;99.90;;;;;;5048361;28;20271;-80
2023/08/13 00:31:38;;;;;;;8.37;2.83;;;16.00;99.90;;;;;;5039466;28;20203;-79
2023/08/13 00:34:03;;;;;;;11.60;2.70;;;16.00;99.90;;;;;;5038743;28;20603;-79
2023/08/13 00:36:29;;;;;;;11.87;2.53;;;16.00;99.90;;;;;;5048459;28;20262;-79
2023/08/13 00:38:54;;;;;;;9.93;2.60;;;16.00;99.90;;;;;;5046181;28;20191;-79
2023/08/13 00:41:20;;;;;;;9.50;2.63;;;16.00;99.90;;;;;;5043032;28;20251;-79
2023/08/13 00:43:46;;;;;;;8.77;2.53;;;16.00;99.90;;;;;;5059652;28;20176;-79
2023/08/13 00:46:12;;;;;;;9.10;2.90;;;16.00;99.90;;;;;;5058188;28;20629;-79
2023/08/13 00:48:39;;;;;;;5.67;2.60;;;16.00;99.90;;;;;;5058973;28;20198;-79
2023/08/13 00:51:06;;;;;;;7.53;3.40;;;16.00;99.90;;;;;;5056241;28;20202;-79
2023/08/13 00:53:38;;;;;;;9.13;2.83;;;16.00;99.90;;;;;;5058274;28;20199;-78
2023/08/13 00:56:03;;;;;;;12.93;2.80;;;16.00;99.90;;;;;;5056442;28;20179;-79
2023/08/13 00:58:29;;;;;;;5.77;2.60;;;16.00;99.90;;;;;;5058689;28;20542;-80
2023/08/13 01:00:55;;;;;;;11.53;2.70;;;15.90;99.90;;;;;;5057874;28;20230;-79
2023/08/13 01:03:20;;;;;;;8.07;2.30;;;15.90;99.90;;;;;;5039831;28;20176;-79
2023/08/13 01:05:54;;;;;;;8.73;2.33;;;15.90;99.90;;;;;;5059638;28;20186;-79
2023/08/13 01:08:35;;;;;;;11.37;2.53;;;15.90;99.90;;;;;;5059984;28;20235;-79
2023/08/13 01:11:14;;;;;;;13.40;2.50;;;15.90;99.90;;;;;;5052850;28;20584;-79
2023/08/13 01:13:47;;;;;;;10.40;2.13;;;15.90;99.90;;;;;;5055968;28;20214;-79
2023/08/13 01:16:15;;;;;;;9.03;2.63;;;15.80;99.90;;;;;;5059168;28;20159;-79
2023/08/13 01:18:42;;;;;;;12.73;2.97;;;15.80;99.90;;;;;;5060669;28;20561;-79
2023/08/13 01:21:07;;;;;;;14.50;3.30;;;15.80;99.90;;;;;;5058367;28;20192;-79
2023/08/13 01:23:33;;;;;;;9.43;2.87;;;15.80;99.90;;;;;;5041672;28;20180;-79
2023/08/13 01:26:07;;;;;;;12.30;2.60;;;15.80;99.90;;;;;;5039515;28;20226;-79
2023/08/13 01:28:42;;;;;;;12.63;2.60;;;15.70;99.90;;;;;;5037626;28;20589;-78
2023/08/13 01:31:30;;;;;;;5.10;2.50;;;15.70;99.90;;;;;;5037145;28;20202;-79
2023/08/13 01:34:00;;;;;;;7.10;2.47;;;15.70;99.90;;;;;;5039171;28;20698;-79
2023/08/13 01:36:26;;;;;;;6.20;2.83;;;15.70;99.90;;;;;;5042310;28;20180;-79
2023/08/13 01:38:55;;;;;;;12.67;2.97;;;15.70;99.90;;;;;;5058251;28;20177;-81
2023/08/13 01:41:20;;;;;;;14.67;2.70;;;15.70;99.90;;;;;;5043761;28;20204;-79
2023/08/13 01:43:46;;;;;;;5.07;2.37;;;15.70;99.90;;;;;;5052803;28;20191;-79
2023/08/13 01:46:11;;;;;;;8.20;2.87;;;15.70;99.90;;;;;;5045916;28;20176;-79
2023/08/13 01:48:37;;;;;;;13.10;2.83;;;15.70;99.90;;;;;;5057784;28;20222;-80
2023/08/13 01:51:02;;;;;;;7.80;2.53;;;15.60;99.90;;;;;;5065559;28;20239;-79
2023/08/13 01:53:28;;;;;;;9.50;2.90;;;15.60;99.90;;;;;;5059931;28;20212;-79
2023/08/13 01:55:53;;;;;;;10.33;3.17;;;15.50;99.90;;;;;;5053648;28;20699;-80
2023/08/13 01:58:19;;;;;;;6.20;2.27;;;15.50;99.90;;;;;;5068023;28;20182;-79
2023/08/13 02:00:44;;;;;;;12.07;2.63;;;15.50;99.90;;;;;;5067725;28;20196;-78
2023/08/13 02:03:10;;;;;;;8.37;2.93;;;15.40;99.90;;;;;;5053446;28;20214;-79
2023/08/13 02:05:36;;;;;;;12.80;2.73;;;15.40;99.90;;;;;;5065897;28;20175;-79
2023/08/13 02:08:02;;;;;;;10.83;3.00;;;15.40;99.90;;;;;;5071338;28;20180;-79
2023/08/13 02:10:27;;;;;;;7.33;3.10;;;15.40;99.90;;;;;;5055273;28;20204;-79
2023/08/13 02:12:53;;;;;;;10.30;2.50;;;15.40;99.90;;;;;;5051222;28;20204;-79
2023/08/13 02:15:18;;;;;;;5.37;2.53;;;15.40;99.90;;;;;;5050878;28;20238;-80
2023/08/13 02:17:44;;;;;;;6.13;2.53;;;15.40;99.90;;;;;;5062709;28;20580;-78
2023/08/13 02:20:11;;;;;;;7.73;2.47;;;15.30;99.90;;;;;;5048713;28;20199;-79
2023/08/13 02:22:36;;;;;;;10.57;2.80;;;15.30;99.90;;;;;;5060351;28;20183;-79
2023/08/13 02:25:02;;;;;;;14.60;2.70;;;15.30;99.90;;;;;;5053735;28;20195;-79
2023/08/13 02:27:27;;;;;;;12.63;2.87;;;15.30;99.90;;;;;;5046304;28;20183;-79
2023/08/13 02:29:53;;;;;;;7.63;3.10;;;15.20;99.90;;;;;;5046546;28;20184;-79
2023/08/13 02:32:19;;;;;;;8.03;2.90;;;15.20;99.90;;;;;;5046826;28;20219;-79
2023/08/13 02:34:46;;;;;;;13.43;3.00;;;15.20;99.90;;;;;;5048335;28;20680;-79
2023/08/13 02:37:12;;;;;;;8.87;2.53;;;15.20;99.90;;;;;;5063117;28;20184;-79
2023/08/13 02:39:37;;;;;;;10.23;2.20;;;15.20;99.90;;;;;;5064539;28;20187;-79
2023/08/13 02:42:03;;;;;;;13.20;2.53;;;15.20;99.90;;;;;;5064604;28;20203;-79
2023/08/13 02:44:29;;;;;;;5.03;2.40;;;15.20;99.90;;;;;;5060085;28;20191;-79
2023/08/13 02:46:54;;;;;;;7.03;2.57;;;15.10;99.90;;;;;;5066386;28;20641;-79
2023/08/13 02:49:20;;;;;;;8.97;2.60;;;15.10;99.90;;;;;;5046737;28;20544;-79
2023/08/13 02:51:45;;;;;;;10.67;2.50;;;15.10;99.90;;;;;;5045850;28;20683;-79
2023/08/13 02:54:11;;;;;;;8.40;3.07;;;15.00;99.90;;;;;;5046007;28;20222;-79
2023/08/13 02:56:38;;;;;;;13.67;2.80;;;15.00;99.90;;;;;;5066701;28;20541;-79
2023/08/13 02:59:03;;;;;;;16.80;2.90;;;15.00;99.90;;;;;;5066849;28;20197;-79
2023/08/13 03:01:29;;;;;;;11.10;2.80;;;14.90;99.90;;;;;;5065681;28;20712;-79
2023/08/13 03:03:55;;;;;;;6.97;2.33;;;14.90;99.90;;;;;;5065793;28;20496;-80
2023/08/13 03:06:22;;;;;;;6.43;2.30;;;14.90;99.90;;;;;;5046123;28;20183;-79
2023/08/13 03:08:48;;;;;;;10.03;2.60;;;14.90;99.90;;;;;;5046016;28;20186;-79
2023/08/13 03:11:14;;;;;;;7.03;2.47;;;14.80;99.90;;;;;;5046271;28;20231;-79
2023/08/13 03:13:39;;;;;;;9.03;2.43;;;14.90;99.90;;;;;;5046228;28;20208;-79
2023/08/13 03:16:05;;;;;;;12.47;2.57;;;14.90;99.90;;;;;;5062144;28;20188;-79
2023/08/13 03:18:31;;;;;;;9.93;2.77;;;15.00;99.90;;;;;;5066910;28;20175;-79
2023/08/13 03:20:56;;;;;;;10.67;2.97;;;14.80;99.90;;;;;;5067448;28;20733;-79
2023/08/13 03:23:22;;;;;;;6.07;2.73;;;14.80;99.90;;;;;;5062416;28;20181;-79
2023/08/13 03:25:47;;;;;;;8.63;2.60;;;14.80;99.90;;;;;;5049407;28;20674;-79
2023/08/13 03:28:13;;;;;;;15.30;2.77;;;14.80;99.90;;;;;;5052680;28;20199;-79
2023/08/13 03:30:38;;;;;;;10.40;2.87;;;14.90;99.90;;;;;;5054716;28;20211;-79
2023/08/13 03:33:04;;;;;;;6.23;2.70;;;14.70;99.90;;;;;;5061367;28;20575;-79
2023/08/13 03:35:30;;;;;;;6.00;2.50;;;14.70;99.90;;;;;;5060575;28;20183;-79
2023/08/13 03:37:56;;;;;;;6.83;2.20;;;14.70;99.90;;;;;;5063585;28;20168;-78
2023/08/13 03:40:21;;;;;;;7.93;2.60;;;14.70;99.90;;;;;;5065734;28;20684;-78
2023/08/13 03:42:47;;;;;;;11.63;2.70;;;14.80;99.90;;;;;;5064589;28;20176;-79
2023/08/13 03:45:12;;;;;;;10.33;3.07;;;14.80;99.90;;;;;;5063326;28;20183;-79
2023/08/13 03:47:38;;;;;;;8.60;2.63;;;14.70;99.90;;;;;;5064643;28;20559;-79
2023/08/13 03:50:04;;;;;;;14.50;2.97;;;14.70;99.90;;;;;;5065769;28;20179;-78
2023/08/13 03:52:30;;;;;;;6.27;2.43;;;14.70;99.90;;;;;;5067217;28;20214;-79
2023/08/13 03:54:55;;;;;;;7.03;2.83;;;14.60;99.90;;;;;;5061030;28;20543;-79
2023/08/13 03:57:21;;;;;;;7.23;2.37;;;14.60;99.90;;;;;;5065813;28;20203;-79
2023/08/13 03:59:46;;;;;;;6.77;2.90;;;14.60;99.90;;;;;;5064784;28;20179;-79
2023/08/13 04:02:12;;;;;;;7.13;2.57;;;14.50;99.90;;;;;;5066434;28;20245;-79
2023/08/13 04:04:37;;;;;;;16.53;2.93;;;14.50;99.90;;;;;;5056316;28;20199;-79
2023/08/13 04:07:03;;;;;;;10.70;2.63;;;14.50;99.90;;;;;;5046677;28;20177;-79
2023/08/13 04:09:28;;;;;;;17.27;2.73;;;14.60;99.90;;;;;;5055007;28;20180;-79
2023/08/13 04:11:54;;;;;;;5.27;2.50;;;14.60;99.90;;;;;;5065313;28;20271;-79
2023/08/13 04:14:20;;;;;;;8.57;2.57;;;14.50;99.90;;;;;;5053456;28;20220;-78
2023/08/13 04:16:45;;;;;;;11.87;2.80;;;14.50;99.90;;;;;;5045408;28;20188;-80
2023/08/13 04:19:11;;;;;;;14.97;3.10;;;14.50;99.90;;;;;;5044051;28;20172;-79
2023/08/13 04:21:36;;;;;;;8.17;2.17;;;14.50;99.90;;;;;;5045427;28;20199;-78
2023/08/13 04:24:02;;;;;;;15.47;2.50;;;14.50;99.90;;;;;;5046382;28;20190;-79
2023/08/13 04:26:27;;;;;;;6.20;2.27;;;14.50;99.90;;;;;;5043565;28;20184;-79
2023/08/13 04:28:53;;;;;;;8.10;2.37;;;14.40;99.90;;;;;;5042679;28;20219;-79
2023/08/13 04:31:20;;;;;;;8.07;2.57;;;14.40;99.90;;;;;;5042096;28;20200;-79
2023/08/13 04:33:49;;;;;;;6.43;2.37;;;14.40;99.90;;;;;;5041721;28;20636;-79
2023/08/13 04:36:14;;;;;;;10.97;2.40;;;14.50;99.90;;;;;;5042007;28;20164;-78
2023/08/13 04:38:40;;;;;;;7.17;2.67;;;14.40;99.90;;;;;;5045487;28;20726;-79
2023/08/13 04:41:05;;;;;;;6.07;2.50;;;14.40;99.90;;;;;;5060961;28;20227;-78
2023/08/13 04:43:31;;;;;;;12.40;2.87;;;14.40;99.90;;;;;;5059286;28;20196;-78
2023/08/13 04:45:56;;;;;;;9.20;2.80;;;14.40;99.90;;;;;;5040771;28;20177;-78
2023/08/13 04:48:45;;;;;;;5.27;2.60;;;14.40;99.90;;;;;;5041945;28;20520;-78
2023/08/13 04:51:12;;;;;;;11.53;2.73;;;14.40;99.90;;;;;;5041775;28;20200;-79
2023/08/13 04:53:37;;;;;;;8.23;2.23;;;14.40;99.90;;;;;;5045668;28;20203;-79
2023/08/13 04:56:06;;;;;;;11.07;2.60;;;14.30;99.90;;;;;;5061188;28;20168;-77
2023/08/13 04:58:32;;;;;;;6.87;2.63;;;14.30;99.90;;;;;;5057632;28;20180;-78
2023/08/13 05:00:57;;;;;;;8.83;2.37;;;14.30;99.90;;;;;;5041154;28;20207;-79
2023/08/13 05:03:23;;;;;;;11.13;2.10;;;14.30;99.90;;;;;;5060989;28;20523;-78
2023/08/13 05:05:48;;;;;;;6.07;2.33;;;14.40;99.90;;;;;;5061293;28;20207;-79
2023/08/13 05:08:14;;;;;;;12.37;2.70;;;14.30;99.90;;;;;;5059298;28;20179;-78
2023/08/13 05:10:39;;;;;;;9.87;2.50;;;14.40;99.90;;;;;;5052426;28;20210;-78
2023/08/13 05:13:05;;;;;;;13.33;2.20;;;14.40;99.90;;;;;;5062015;28;20200;-78
2023/08/13 05:15:31;;;;;;;10.57;2.53;;;14.40;99.90;;;;;;5052665;28;20278;-79
2023/08/13 05:17:57;;;;;;;11.17;3.53;;;14.50;99.90;;;;;;5042084;28;20164;-79
2023/08/13 05:20:23;;;;;;;9.73;2.70;;;14.50;99.90;;;;;;5041704;28;20173;-79
2023/08/13 05:22:49;;;;;;;7.47;2.43;;;14.50;99.90;;;;;;5042391;28;20179;-79
2023/08/13 05:25:15;;;;;;;3.73;2.30;;;14.50;99.90;;;;;;5044926;28;20184;-79
2023/08/13 05:27:40;;;;;;;5.83;2.67;;;14.60;99.90;;;;;;5061643;28;20183;-78
2023/08/13 05:30:07;;;;;;;7.23;2.63;;;14.60;99.90;;;;;;5062989;28;20164;-79
2023/08/13 05:32:32;;;;;;;9.33;3.00;;;14.60;99.90;;;;;;5062740;28;20235;-78
2023/08/13 05:34:58;;;;;;;14.27;3.27;;;14.70;99.90;;;;;;5062221;28;20203;-79
2023/08/13 05:37:23;;;;;;;6.70;2.20;;;14.70;99.90;;;;;;5043902;28;20203;-79
2023/08/13 05:39:49;;;;;;;8.57;2.70;;;14.70;99.90;;;;;;5045090;28;20565;-78
2023/08/13 05:42:14;;;;;;;10.73;2.53;;;14.80;99.90;;;;;;5041037;28;20208;-78
2023/08/13 05:44:40;;;;;;;9.00;2.87;;;14.80;99.90;;;;;;5042070;28;20192;-78
2023/08/13 05:47:05;;;;;;;5.87;2.40;;;14.80;99.90;;;;;;5040909;28;20615;-78
2023/08/13 05:49:31;;;;;;;4.93;2.40;;;14.90;99.90;;;;;;5041104;28;20204;-79
2023/08/13 05:51:56;;;;;;;10.50;2.30;;;14.90;99.90;;;;;;5052735;28;20347;-79
2023/08/13 05:54:22;;;;;;;7.73;2.30;;;14.90;99.90;;;;;;5059373;28;20207;-79
2023/08/13 05:56:48;;;;;;;13.60;3.30;;;14.90;99.90;;;;;;5062209;28;20237;-78
2023/08/13 05:59:14;;;;;;;6.60;2.10;;;15.00;99.90;;;;;;5057759;28;20191;-79
2023/08/13 06:01:40;;;;;;;8.17;2.60;;;15.00;99.90;;;;;;5062535;28;20187;-78
2023/08/13 06:04:05;;;;;;;15.83;2.67;;;15.00;99.90;;;;;;5063649;28;20171;-79
2023/08/13 06:06:31;;;;;;;8.23;2.70;;;15.10;99.90;;;;;;5065336;28;20205;-79
2023/08/13 06:08:57;;;;;;;6.83;2.90;;;15.10;99.90;;;;;;5060300;28;20190;-80
2023/08/13 06:11:23;;;;;;;5.07;2.60;;;15.10;99.90;;;;;;5060656;28;20203;-79
2023/08/13 06:13:49;;;;;;;9.47;2.93;;;15.20;99.90;;;;;;5054443;28;20212;-80
2023/08/13 06:16:15;;;;;;;6.43;2.70;;;15.20;99.90;;;;;;5048724;28;20172;-79
2023/08/13 06:18:40;;;;;;;6.23;2.60;;;15.30;99.90;;;;;;5049681;28;20191;-79
2023/08/13 06:21:06;;;;;;;8.90;3.10;;;15.30;99.90;;;;;;5049292;28;20199;-80
2023/08/13 06:23:31;;;;;;;8.07;2.90;;;15.40;99.90;;;;;;5067447;28;20190;-80
2023/08/13 06:25:57;;;;;;;7.37;3.03;;;15.50;99.90;;;;;;5071119;28;20186;-79
2023/08/13 06:28:22;;;;;;;8.97;2.87;;;15.50;99.90;;;;;;5062787;28;20252;-79
2023/08/13 06:30:49;;;;;;;10.00;3.40;;;15.60;99.90;;;;;;5051466;28;20286;-79
2023/08/13 06:33:14;;;;;;;6.57;3.00;;;15.70;99.90;;;;;;5052595;28;20246;-79
2023/08/13 06:35:44;;;;;;;10.70;3.23;;;15.70;99.90;;;;;;5053880;28;20168;-79
2023/08/13 06:38:09;;;;;;;7.57;3.70;;;15.80;99.90;;;;;;5060949;28;20176;-79
2023/08/13 06:40:35;;;;;;;11.00;3.07;;;15.80;99.90;;;;;;5068425;28;20259;-79
2023/08/13 06:43:00;;;;;;;9.47;3.63;;;15.90;99.90;;;;;;5065767;28;20195;-80
2023/08/13 06:45:27;;;;;;;7.80;3.00;;;15.90;99.90;;;;;;5052396;28;20191;-79
2023/08/13 06:47:55;;;;;;;9.97;3.00;;;16.00;99.90;;;;;;5047342;28;20195;-80
2023/08/13 06:50:20;;;;;;;10.57;2.90;;;16.00;99.90;;;;;;5046276;28;20267;-79
2023/08/13 06:52:46;;;;;;;6.90;2.63;;;16.00;99.90;;;;;;5057877;28;20242;-79
2023/08/13 06:55:12;;;;;;;7.37;2.90;;;16.10;99.90;;;;;;5045417;28;20188;-78
2023/08/13 06:57:37;;;;;;;13.27;2.60;;;16.10;99.90;;;;;;5045989;28;20176;-78
2023/08/13 07:00:05;;;;;;;6.03;2.90;;;16.10;99.90;;;;;;5044478;28;20168;-79
2023/08/13 07:02:31;;;;;;;11.27;3.37;;;16.20;99.90;;;;;;5062452;28;20342;-78
2023/08/13 07:04:56;;;;;;;8.47;3.00;;;16.20;99.90;;;;;;5063680;28;20188;-79
2023/08/13 07:07:22;;;;;;;7.30;2.77;;;16.20;99.90;;;;;;5060534;28;20241;-79
2023/08/13 07:09:48;;;;;;;8.03;3.00;;;16.20;99.90;;;;;;5058789;28;20213;-80
2023/08/13 07:12:13;;;;;;;11.40;3.80;;;16.20;99.90;;;;;;5058199;28;20199;-79
2023/08/13 07:14:39;;;;;;;7.73;3.63;;;16.30;99.90;;;;;;5078987;28;20186;-79
2023/08/13 07:17:04;;;;;;;6.20;3.30;;;16.40;99.90;;;;;;5066540;28;20844;-80
2023/08/13 07:19:32;;;;;;;14.10;3.43;;;16.40;99.90;;;;;;5044980;28;20194;-78
2023/08/13 07:21:58;;;;;;;11.87;3.80;;;16.40;99.90;;;;;;5055721;28;20251;-79
2023/08/13 07:24:23;;;;;;;12.17;3.67;;;16.50;99.90;;;;;;5053646;28;20187;-78
2023/08/13 07:26:49;;;;;;;10.73;3.80;;;16.60;99.90;;;;;;5065905;28;20171;-78
2023/08/13 07:29:15;;;;;;;7.73;3.80;;;16.70;99.90;;;;;;5053591;28;20282;-78
2023/08/13 07:31:40;;;;;;;10.80;3.73;;;16.80;99.90;;;;;;5057632;28;20215;-78
2023/08/13 07:34:06;;;;;;;9.07;3.40;;;16.80;99.90;;;;;;5047807;28;20204;-78
2023/08/13 07:36:32;;;;;;;8.70;3.63;;;16.90;99.90;;;;;;5061189;28;20183;-78
2023/08/13 07:38:57;;;;;;;9.80;3.60;;;17.00;99.90;;;;;;5054293;28;20212;-78
2023/08/13 07:41:23;;;;;;;11.10;3.83;;;17.10;99.90;;;;;;5039597;28;20567;-77
2023/08/13 07:43:48;;;;;;;9.17;4.30;;;17.20;99.90;;;;;;5036011;28;20632;-78
2023/08/13 07:46:14;;;;;;;9.73;4.03;;;17.20;99.90;;;;;;5036507;28;20180;-78
2023/08/13 07:48:39;;;;;;;10.63;3.50;;;17.30;99.90;;;;;;5036311;28;20188;-77
2023/08/13 07:51:05;;;;;;;12.47;3.13;;;17.40;99.90;;;;;;5035990;28;20218;-77
2023/08/13 07:53:31;;;;;;;10.47;3.17;;;17.40;99.90;;;;;;5035999;28;20643;-78
2023/08/13 07:55:57;;;;;;;6.50;2.70;;;17.50;99.90;;;;;;5036241;28;20188;-77
2023/08/13 07:58:22;;;;;;;11.30;3.07;;;17.50;99.90;;;;;;5040508;28;20187;-76
2023/08/13 08:00:48;;;;;;;8.50;2.97;;;17.70;99.90;;;;;;5035734;28;20188;-78
2023/08/13 08:03:14;;;;;;;7.40;2.20;;;17.90;99.90;;;;;;5056788;28;20659;-78
2023/08/13 08:05:41;;;;;;;5.97;1.90;;;17.90;99.90;;;;;;5046499;28;20238;-78
2023/08/13 08:08:06;;;;;;;7.83;2.70;;;18.00;99.90;;;;;;5038422;28;20211;-79
2023/08/13 08:10:32;;;;;;;9.13;2.33;;;18.10;99.90;;;;;;5038431;28;20196;-78
2023/08/13 08:12:57;;;;;;;7.97;2.07;;;18.20;99.90;;;;;;5039862;28;20279;-79
2023/08/13 08:15:25;;;;;;;6.03;2.00;;;18.40;99.90;;;;;;5049128;28;20188;-79
2023/08/13 08:17:50;;;;;;;6.13;2.40;;;18.40;99.90;;;;;;5051069;28;20195;-78
2023/08/13 08:20:16;;;;;;;7.23;2.17;;;18.50;99.90;;;;;;5051014;28;20195;-79
2023/08/13 08:22:42;;;;;;;8.07;2.10;;;18.60;99.90;;;;;;5038161;28;20175;-79
2023/08/13 08:25:09;;;;;;;10.33;2.30;;;18.60;99.90;;;;;;5038815;28;20306;-80
2023/08/13 08:27:35;;;;;;;3.90;1.90;;;18.80;99.90;;;;;;5042092;28;20180;-79
2023/08/13 08:30:00;;;;;;;5.53;2.17;;;18.70;99.90;;;;;;5053575;28;20191;-78
2023/08/13 08:32:26;;;;;;;7.87;2.07;;;18.90;99.90;;;;;;5055831;28;20567;-78
2023/08/13 08:34:51;;;;;;;7.47;1.93;;;18.90;99.90;;;;;;5051214;28;20175;-79
2023/08/13 08:37:17;;;;;;;5.80;1.97;;;19.00;99.90;;;;;;5037688;28;20182;-78
2023/08/13 08:39:42;;;;;;;11.87;2.00;;;19.10;99.90;;;;;;5036617;28;20194;-79
2023/08/13 08:42:11;;;;;;;4.23;1.73;;;19.20;99.90;;;;;;5043353;28;20208;-78
2023/08/13 08:44:41;;;;;;;7.00;1.83;;;19.20;99.90;;;;;;5053393;28;20183;-78
2023/08/13 08:47:08;;;;;;;10.53;2.00;;;19.30;99.90;;;;;;5047726;28;20254;-79
2023/08/13 08:49:34;;;;;;;5.13;1.70;;;19.40;99.90;;;;;;5043470;28;20249;-79
2023/08/13 08:52:00;;;;;;;6.93;2.30;;;19.40;99.90;;;;;;5060066;28;20208;-79
2023/08/13 08:54:26;;;;;;;6.97;1.70;;;19.50;99.90;;;;;;5048776;28;20214;-78
2023/08/13 08:56:51;;;;;;;8.37;1.90;;;19.60;99.90;;;;;;5044977;28;20279;-79
2023/08/13 08:59:18;;;;;;;4.87;1.50;;;19.70;99.90;;;;;;5053982;28;20188;-80
2023/08/13 09:01:43;;;;;;;5.20;1.87;;;19.70;99.90;;;;;;5036766;28;20278;-79
2023/08/13 09:04:09;;;;;;;3.63;1.50;;;19.70;99.90;;;;;;5036746;28;20211;-79
2023/08/13 09:06:58;;;;;;;6.40;2.00;;;19.80;99.90;;;;;;5036061;28;20544;-79
2023/08/13 09:09:25;;;;;;;6.77;1.93;;;19.80;99.90;;;;;;5036490;28;20298;-79
2023/08/13 09:11:52;;;;;;;5.97;1.90;;;19.80;99.90;;;;;;5036325;28;20679;-79
2023/08/13 09:14:19;;;;;;;5.67;1.80;;;19.90;99.90;;;;;;5035855;28;20212;-78
2023/08/13 09:16:46;;;;;;;6.53;1.97;;;20.00;99.90;;;;;;5036367;28;20180;-79
2023/08/13 09:19:13;;;;;;;7.73;2.03;;;20.00;99.90;;;;;;5036333;28;20180;-79
2023/08/13 09:21:40;;;;;;;4.30;1.50;;;20.00;99.90;;;;;;5035807;28;20283;-79
2023/08/13 09:24:07;;;;;;;6.80;1.83;;;20.10;99.90;;;;;;5036905;28;20255;-79
2023/08/13 09:26:33;;;;;;;9.87;2.83;;;20.20;99.90;;;;;;5036818;28;20194;-79
2023/08/13 09:29:07;;;;;;;6.43;2.10;;;20.40;99.90;;;;;;5036485;28;20385;-79
2023/08/13 09:31:33;;;;;;;4.23;1.93;;;20.40;99.90;;;;;;5036117;28;20684;-79
2023/08/13 09:33:59;;;;;;;7.40;2.00;;;20.40;99.90;;;;;;5035879;28;20287;-79
2023/08/13 09:36:25;;;;;;;5.80;1.87;;;20.50;99.90;;;;;;5035772;28;20218;-79
2023/08/13 09:38:52;;;;;;;5.40;2.03;;;20.60;99.90;;;;;;5036247;28;20602;-80
2023/08/13 09:41:19;;;;;;;6.70;2.43;;;20.60;99.90;;;;;;5037490;28;20191;-79
2023/08/13 09:43:47;;;;;;;6.20;2.30;;;20.70;99.90;;;;;;5039563;28;20177;-78
2023/08/13 09:46:19;;;;;;;4.93;1.70;;;20.60;99.90;;;;;;5039524;28;20230;-79
2023/08/13 09:48:46;;;;;;;7.27;1.93;;;20.80;99.90;;;;;;5039717;28;20203;-79
2023/08/13 09:51:13;;;;;;;7.43;2.17;;;20.90;99.90;;;;;;5039652;28;20219;-79
2023/08/13 09:53:47;;;;;;;9.13;2.40;;;21.00;1.00;;;;;;5040058;28;20745;-79
2023/08/13 09:56:15;;;;;;;7.97;2.00;;;21.00;1.00;;;;;;5040609;28;20167;-79
2023/08/13 09:58:41;;;;;;;7.43;2.00;;;21.20;1.00;;;;;;5039656;28;20177;-79
2023/08/13 10:01:07;;;;;;;8.40;2.03;;;21.20;1.00;;;;;;5039298;28;20208;-79
2023/08/13 10:03:34;;;;;;;6.30;1.90;;;21.50;1.00;;;;;;5042216;28;20173;-79
2023/08/13 10:05:59;;;;;;;12.57;2.40;;;21.60;1.00;;;;;;5042015;28;20184;-79
2023/08/13 10:08:26;;;;;;;7.30;1.90;;;21.60;1.00;;;;;;5043442;28;20187;-79
2023/08/13 10:10:51;;;;;;;6.40;1.93;;;21.70;1.00;;;;;;5048260;28;20216;-78
2023/08/13 10:13:18;;;;;;;7.87;1.93;;;21.70;1.00;;;;;;5053730;28;20188;-78
2023/08/13 10:15:46;;;;;;;6.97;2.53;;;21.80;1.00;;;;;;5052234;28;20173;-79
2023/08/13 10:18:11;;;;;;;5.07;1.47;;;21.70;99.90;;;;;;5052888;28;20240;-79
2023/08/13 10:20:46;;;;;;;6.30;2.37;;;21.90;1.00;;;;;;5052278;28;20192;-79
2023/08/13 10:23:12;;;;;;;5.83;1.83;;;21.80;1.00;;;;;;5048381;28;20161;-79
2023/08/13 10:25:38;;;;;;;4.00;1.67;;;21.90;1.00;;;;;;5047679;28;20207;-79
2023/08/13 10:28:51;;;;;;;7.90;2.17;;;21.90;99.90;;;;;;5040905;28;20249;-79
2023/08/13 10:31:29;;;;;;;6.43;1.70;;;21.90;99.90;;;;;;5020179;28;20204;-79
2023/08/13 10:34:11;;;;;;;8.33;1.63;;;22.00;99.90;;;;;;5018775;28;20319;-79
2023/08/13 10:36:53;;;;;;;8.90;2.00;;;22.00;99.90;;;;;;5034615;28;20326;-79
2023/08/13 10:39:57;;;;;;;6.90;2.17;;;22.00;99.90;;;;;;5039637;28;20268;-79
2023/08/13 10:42:29;;;;;;;8.23;2.10;;;22.10;99.90;;;;;;5036065;28;20262;-78
2023/08/13 10:45:03;;;;;;;4.27;1.67;;;22.10;99.90;;;;;;5040187;28;20270;-79
2023/08/13 10:47:40;;;;;;;7.53;2.17;;;22.20;99.90;;;;;;5040244;28;20156;-79
2023/08/13 10:50:28;;;;;;;5.57;2.57;;;22.20;99.90;;;;;;5040618;28;20217;-79
2023/08/13 10:53:10;;;;;;;6.93;2.27;;;22.20;99.90;;;;;;5039591;28;20203;-79
2023/08/13 10:55:46;;;;;;;10.67;2.00;;;22.20;99.90;;;;;;5039093;28;20179;-79
2023/08/13 10:58:26;;;;;;;8.90;2.03;;;22.20;99.90;;;;;;5041189;28;20159;-79
2023/08/13 11:00:57;;;;;;;7.60;2.23;;;22.30;99.90;;;;;;5040298;28;20650;-76
2023/08/13 11:03:25;;;;;;;8.83;2.60;;;22.40;99.90;;;;;;5038594;28;20161;-78
2023/08/13 11:05:51;;;;;;;5.60;2.13;;;22.40;99.90;;;;;;5044158;28;20522;-79
2023/08/13 11:08:18;;;;;;;6.23;1.97;;;22.50;99.90;;;;;;5042355;28;20184;-78
2023/08/13 11:10:46;;;;;;;6.87;2.00;;;22.40;99.90;;;;;;5037950;28;20682;-77
2023/08/13 11:13:12;;;;;;;9.83;2.33;;;22.50;99.90;;;;;;5036829;28;20281;-78
2023/08/13 11:15:39;;;;;;;5.33;2.00;;;22.50;99.90;;;;;;5035973;28;20237;-76
2023/08/13 11:18:05;;;;;;;6.17;2.30;;;22.60;99.90;;;;;;5040591;28;20188;-78
2023/08/13 11:20:31;;;;;;;6.90;1.93;;;22.70;99.90;;;;;;5045429;28;20196;-79
2023/08/13 11:22:57;;;;;;;6.40;2.30;;;22.70;99.90;;;;;;5043765;28;20270;-80
2023/08/13 11:25:25;;;;;;;7.10;1.90;;;22.80;99.90;;;;;;5040141;28;20258;-79
2023/08/13 11:27:51;;;;;;;6.23;2.23;;;22.90;67.70;;;;;;5042509;28;20183;-79
2023/08/13 11:30:17;;;;;;;8.87;2.03;;;23.00;99.90;;;;;;5041936;28;20168;-78
2023/08/13 11:32:44;;;;;;;5.63;2.53;;;23.10;99.90;;;;;;5042478;28;20568;-80
2023/08/13 11:35:09;;;;;;;9.13;2.37;;;23.30;99.90;;;;;;5042371;28;20656;-79
2023/08/13 11:37:37;;;;;;;10.37;2.23;;;23.30;99.90;;;;;;5041832;28;20255;-78
2023/08/13 11:40:05;;;;;;;5.70;2.00;;;23.50;99.90;;;;;;5042454;28;20172;-78
2023/08/13 11:42:31;;;;;;;9.53;2.10;;;23.50;99.90;;;;;;5041916;28;20288;-78
2023/08/13 11:44:57;;;;;;;8.30;2.40;;;23.50;99.90;;;;;;5038837;28;20176;-78
2023/08/13 11:47:26;;;;;;;6.50;2.07;;;23.70;1.00;;;;;;5040921;28;20258;-79
2023/08/13 11:49:54;;;;;;;5.40;1.70;;;23.50;1.00;;;;;;5041080;28;20171;-79
2023/08/13 11:52:20;;;;;;;5.03;1.97;;;23.60;67.30;;;;;;5042344;28;20279;-78
2023/08/13 11:54:46;;;;;;;8.00;2.13;;;23.60;99.90;;;;;;5042222;28;20236;-80
2023/08/13 11:57:12;;;;;;;7.70;2.10;;;23.50;99.90;;;;;;5042237;28;20176;-78
2023/08/13 11:59:38;;;;;;;5.60;2.20;;;23.50;99.90;;;;;;5041959;28;20203;-78
2023/08/13 12:02:03;;;;;;;5.33;2.20;;;23.30;74.20;;;;;;5041468;28;20651;-78
2023/08/13 12:04:31;;;;;;;7.03;2.03;;;23.30;99.90;;;;;;5041507;28;20172;-78
2023/08/13 12:06:57;;;;;;;7.63;2.10;;;23.20;99.90;;;;;;5041984;28;20176;-79
2023/08/13 12:09:23;;;;;;;7.93;2.20;;;23.40;99.90;;;;;;5041476;28;20176;-78
2023/08/13 12:11:48;;;;;;;7.73;2.60;;;23.60;99.90;;;;;;5041796;28;20579;-78
2023/08/13 12:14:14;;;;;;;8.10;2.20;;;23.60;99.90;;;;;;5042165;28;20196;-78
2023/08/13 12:16:39;;;;;;;5.03;2.00;;;23.50;99.90;;;;;;5042589;28;20180;-78
2023/08/13 12:19:06;;;;;;;5.87;2.33;;;23.40;99.90;;;;;;5043345;28;20195;-78
2023/08/13 12:21:33;;;;;;;9.70;2.30;;;23.40;99.90;;;;;;5043023;28;20200;-79
2023/08/13 12:23:58;;;;;;;4.93;2.10;;;23.30;99.90;;;;;;5041700;28;20177;-79
2023/08/13 12:26:24;;;;;;;6.60;2.30;;;23.30;99.90;;;;;;5039595;28;20552;-79
2023/08/13 12:28:52;;;;;;;8.33;2.27;;;23.40;99.90;;;;;;5039308;28;20227;-79
2023/08/13 12:31:18;;;;;;;7.13;2.07;;;23.40;99.90;;;;;;5039438;28;20199;-79
2023/08/13 12:33:45;;;;;;;8.20;2.50;;;23.60;99.90;;;;;;5042596;28;20701;-79
2023/08/13 12:36:10;;;;;;;6.03;2.10;;;23.60;99.90;;;;;;5041487;28;20228;-79
2023/08/13 12:38:39;;;;;;;4.10;1.67;;;23.60;99.90;;;;;;5043977;28;20196;-80
2023/08/13 12:41:05;;;;;;;9.90;2.30;;;23.70;99.90;;;;;;5041589;28;20557;-79
2023/08/13 12:43:31;;;;;;;7.50;2.60;;;23.80;99.90;;;;;;5042675;28;20172;-79